sensor_id;sensor_type;location;lat;lon;timestamp;P1;durP1;ratioP1;P2;durP2;ratioP2
73869;SDS011;64924;42.140;24.762;2023-06-10T00:01:23;6.72;;;4.65;;
73869;SDS011;64924;42.140;24.762;2023-06-10T00:03:49;6.93;;;4.65;;
73869;SDS011;64924;42.140;24.762;2023-06-10T00:06:16;13.35;;;5.47;;
73869;SDS011;64924;42.140;24.762;2023-06-10T00:08:42;7.20;;;4.93;;
73869;SDS011;64924;42.140;24.762;2023-06-10T00:11:07;10.48;;;5.28;;
73869;SDS011;64924;42.140;24.762;2023-06-10T00:13:33;8.55;;;4.90;;
73869;SDS011;64924;42.140;24.762;2023-06-10T00:15:58;6.13;;;4.90;;
73869;SDS011;64924;42.140;24.762;2023-06-10T00:18:24;5.85;;;4.95;;
73869;SDS011;64924;42.140;24.762;2023-06-10T00:20:52;7.28;;;4.97;;
73869;SDS011;64924;42.140;24.762;2023-06-10T00:23:20;6.53;;;4.75;;
73869;SDS011;64924;42.140;24.762;2023-06-10T00:25:47;6.60;;;4.63;;
73869;SDS011;64924;42.140;24.762;2023-06-10T00:28:13;7.50;;;4.97;;
73869;SDS011;64924;42.140;24.762;2023-06-10T00:30:38;9.73;;;4.72;;
73869;SDS011;64924;42.140;24.762;2023-06-10T00:33:04;5.38;;;4.55;;
73869;SDS011;64924;42.140;24.762;2023-06-10T00:35:30;7.55;;;4.78;;
73869;SDS011;64924;42.140;24.762;2023-06-10T00:37:55;10.38;;;4.65;;
73869;SDS011;64924;42.140;24.762;2023-06-10T00:40:20;4.95;;;4.22;;
73869;SDS011;64924;42.140;24.762;2023-06-10T00:42:46;9.82;;;4.97;;
73869;SDS011;64924;42.140;24.762;2023-06-10T00:45:11;8.57;;;4.50;;
73869;SDS011;64924;42.140;24.762;2023-06-10T00:47:37;7.25;;;4.78;;
73869;SDS011;64924;42.140;24.762;2023-06-10T00:50:04;7.78;;;4.28;;
73869;SDS011;64924;42.140;24.762;2023-06-10T00:52:30;5.25;;;4.55;;
73869;SDS011;64924;42.140;24.762;2023-06-10T00:54:56;6.20;;;4.43;;
73869;SDS011;64924;42.140;24.762;2023-06-10T00:57:22;10.82;;;4.80;;
73869;SDS011;64924;42.140;24.762;2023-06-10T00:59:48;7.78;;;4.60;;
73869;SDS011;64924;42.140;24.762;2023-06-10T01:02:14;8.63;;;4.60;;
73869;SDS011;64924;42.140;24.762;2023-06-10T01:04:40;5.68;;;4.45;;
73869;SDS011;64924;42.140;24.762;2023-06-10T01:07:25;9.18;;;4.32;;
73869;SDS011;64924;42.140;24.762;2023-06-10T01:15:17;5.30;;;4.75;;
73869;SDS011;64924;42.140;24.762;2023-06-10T01:18:02;7.95;;;4.95;;
73869;SDS011;64924;42.140;24.762;2023-06-10T01:20:34;9.65;;;5.78;;
73869;SDS011;64924;42.140;24.762;2023-06-10T01:23:04;9.95;;;5.57;;
73869;SDS011;64924;42.140;24.762;2023-06-10T01:25:31;7.32;;;4.97;;
73869;SDS011;64924;42.140;24.762;2023-06-10T01:28:10;7.28;;;5.22;;
73869;SDS011;64924;42.140;24.762;2023-06-10T01:30:45;9.07;;;5.07;;
73869;SDS011;64924;42.140;24.762;2023-06-10T01:33:35;5.45;;;4.72;;
73869;SDS011;64924;42.140;24.762;2023-06-10T01:36:03;7.20;;;4.60;;
73869;SDS011;64924;42.140;24.762;2023-06-10T01:38:32;7.47;;;4.70;;
73869;SDS011;64924;42.140;24.762;2023-06-10T01:41:04;5.65;;;4.75;;
73869;SDS011;64924;42.140;24.762;2023-06-10T01:43:33;5.28;;;4.50;;
73869;SDS011;64924;42.140;24.762;2023-06-10T01:45:59;10.50;;;5.15;;
73869;SDS011;64924;42.140;24.762;2023-06-10T01:48:24;6.75;;;4.90;;
73869;SDS011;64924;42.140;24.762;2023-06-10T01:50:50;5.18;;;4.65;;
73869;SDS011;64924;42.140;24.762;2023-06-10T01:53:15;7.80;;;5.30;;
73869;SDS011;64924;42.140;24.762;2023-06-10T01:55:41;8.75;;;4.75;;
73869;SDS011;64924;42.140;24.762;2023-06-10T01:58:06;8.63;;;5.10;;
73869;SDS011;64924;42.140;24.762;2023-06-10T02:00:32;7.55;;;5.22;;
73869;SDS011;64924;42.140;24.762;2023-06-10T02:02:57;8.77;;;5.72;;
73869;SDS011;64924;42.140;24.762;2023-06-10T02:05:23;7.60;;;4.82;;
73869;SDS011;64924;42.140;24.762;2023-06-10T02:07:48;5.30;;;4.70;;
73869;SDS011;64924;42.140;24.762;2023-06-10T02:10:14;8.70;;;5.18;;
73869;SDS011;64924;42.140;24.762;2023-06-10T02:12:39;12.70;;;5.38;;
73869;SDS011;64924;42.140;24.762;2023-06-10T02:15:05;7.82;;;5.00;;
73869;SDS011;64924;42.140;24.762;2023-06-10T02:17:30;7.15;;;4.82;;
73869;SDS011;64924;42.140;24.762;2023-06-10T02:19:57;5.57;;;5.00;;
73869;SDS011;64924;42.140;24.762;2023-06-10T02:22:23;10.10;;;4.78;;
73869;SDS011;64924;42.140;24.762;2023-06-10T02:24:49;5.68;;;4.75;;
73869;SDS011;64924;42.140;24.762;2023-06-10T02:27:15;8.50;;;5.05;;
73869;SDS011;64924;42.140;24.762;2023-06-10T02:29:41;10.80;;;5.28;;
73869;SDS011;64924;42.140;24.762;2023-06-10T02:32:07;6.70;;;5.30;;
73869;SDS011;64924;42.140;24.762;2023-06-10T02:34:33;6.22;;;5.40;;
73869;SDS011;64924;42.140;24.762;2023-06-10T02:36:58;7.38;;;4.75;;
73869;SDS011;64924;42.140;24.762;2023-06-10T02:39:24;6.53;;;4.85;;
73869;SDS011;64924;42.140;24.762;2023-06-10T02:41:50;7.93;;;5.60;;
73869;SDS011;64924;42.140;24.762;2023-06-10T02:44:17;7.68;;;4.85;;
73869;SDS011;64924;42.140;24.762;2023-06-10T02:46:43;9.52;;;5.05;;
73869;SDS011;64924;42.140;24.762;2023-06-10T02:49:09;7.45;;;5.10;;
73869;SDS011;64924;42.140;24.762;2023-06-10T02:51:34;7.63;;;5.15;;
73869;SDS011;64924;42.140;24.762;2023-06-10T02:54:00;9.75;;;4.60;;
73869;SDS011;64924;42.140;24.762;2023-06-10T02:56:26;7.32;;;5.93;;
73869;SDS011;64924;42.140;24.762;2023-06-10T02:58:52;10.70;;;5.50;;
73869;SDS011;64924;42.140;24.762;2023-06-10T03:01:17;14.65;;;6.45;;
73869;SDS011;64924;42.140;24.762;2023-06-10T03:03:44;9.05;;;6.10;;
73869;SDS011;64924;42.140;24.762;2023-06-10T03:06:11;9.70;;;5.65;;
73869;SDS011;64924;42.140;24.762;2023-06-10T03:08:38;7.80;;;6.18;;
73869;SDS011;64924;42.140;24.762;2023-06-10T03:11:04;9.27;;;6.10;;
73869;SDS011;64924;42.140;24.762;2023-06-10T03:13:29;9.05;;;5.55;;
73869;SDS011;64924;42.140;24.762;2023-06-10T03:15:55;9.90;;;6.05;;
73869;SDS011;64924;42.140;24.762;2023-06-10T03:18:20;9.73;;;5.40;;
73869;SDS011;64924;42.140;24.762;2023-06-10T03:20:48;7.15;;;5.93;;
73869;SDS011;64924;42.140;24.762;2023-06-10T03:23:13;10.88;;;5.88;;
73869;SDS011;64924;42.140;24.762;2023-06-10T03:25:39;8.98;;;5.22;;
73869;SDS011;64924;42.140;24.762;2023-06-10T03:28:04;7.95;;;6.03;;
73869;SDS011;64924;42.140;24.762;2023-06-10T03:30:29;9.00;;;5.35;;
73869;SDS011;64924;42.140;24.762;2023-06-10T03:32:55;9.10;;;6.30;;
73869;SDS011;64924;42.140;24.762;2023-06-10T03:35:20;7.22;;;5.25;;
73869;SDS011;64924;42.140;24.762;2023-06-10T03:37:46;10.45;;;5.95;;
73869;SDS011;64924;42.140;24.762;2023-06-10T03:40:11;6.78;;;5.60;;
73869;SDS011;64924;42.140;24.762;2023-06-10T03:42:37;8.73;;;5.65;;
73869;SDS011;64924;42.140;24.762;2023-06-10T03:45:02;13.55;;;6.13;;
73869;SDS011;64924;42.140;24.762;2023-06-10T03:47:35;12.43;;;6.22;;
73869;SDS011;64924;42.140;24.762;2023-06-10T03:50:02;11.73;;;6.07;;
73869;SDS011;64924;42.140;24.762;2023-06-10T03:52:29;9.57;;;7.38;;
73869;SDS011;64924;42.140;24.762;2023-06-10T03:54:54;15.68;;;8.35;;
73869;SDS011;64924;42.140;24.762;2023-06-10T03:57:20;11.07;;;7.57;;
73869;SDS011;64924;42.140;24.762;2023-06-10T03:59:45;12.63;;;7.57;;
73869;SDS011;64924;42.140;24.762;2023-06-10T04:02:11;13.98;;;7.65;;
73869;SDS011;64924;42.140;24.762;2023-06-10T04:04:36;11.23;;;8.00;;
73869;SDS011;64924;42.140;24.762;2023-06-10T04:07:03;12.13;;;8.50;;
73869;SDS011;64924;42.140;24.762;2023-06-10T04:09:29;12.40;;;7.95;;
73869;SDS011;64924;42.140;24.762;2023-06-10T04:11:54;13.82;;;8.10;;
73869;SDS011;64924;42.140;24.762;2023-06-10T04:14:20;11.70;;;7.47;;
73869;SDS011;64924;42.140;24.762;2023-06-10T04:16:45;13.30;;;8.18;;
73869;SDS011;64924;42.140;24.762;2023-06-10T04:19:11;18.98;;;7.78;;
73869;SDS011;64924;42.140;24.762;2023-06-10T04:21:37;11.73;;;7.20;;
73869;SDS011;64924;42.140;24.762;2023-06-10T04:24:02;14.00;;;7.63;;
73869;SDS011;64924;42.140;24.762;2023-06-10T04:26:28;13.85;;;7.40;;
73869;SDS011;64924;42.140;24.762;2023-06-10T04:28:53;16.05;;;7.47;;
73869;SDS011;64924;42.140;24.762;2023-06-10T04:31:19;16.92;;;8.27;;
73869;SDS011;64924;42.140;24.762;2023-06-10T04:33:45;16.85;;;8.13;;
73869;SDS011;64924;42.140;24.762;2023-06-10T04:36:11;14.82;;;8.45;;
73869;SDS011;64924;42.140;24.762;2023-06-10T04:38:36;12.98;;;7.70;;
73869;SDS011;64924;42.140;24.762;2023-06-10T04:41:02;11.68;;;7.47;;
73869;SDS011;64924;42.140;24.762;2023-06-10T04:43:27;11.68;;;7.88;;
73869;SDS011;64924;42.140;24.762;2023-06-10T04:45:55;14.45;;;7.50;;
73869;SDS011;64924;42.140;24.762;2023-06-10T04:48:21;13.68;;;8.43;;
73869;SDS011;64924;42.140;24.762;2023-06-10T04:50:48;15.55;;;8.68;;
73869;SDS011;64924;42.140;24.762;2023-06-10T04:53:15;13.63;;;7.82;;
73869;SDS011;64924;42.140;24.762;2023-06-10T04:55:40;13.38;;;8.20;;
73869;SDS011;64924;42.140;24.762;2023-06-10T04:58:06;11.23;;;8.77;;
73869;SDS011;64924;42.140;24.762;2023-06-10T05:00:31;18.88;;;8.52;;
73869;SDS011;64924;42.140;24.762;2023-06-10T05:02:57;11.32;;;7.75;;
73869;SDS011;64924;42.140;24.762;2023-06-10T05:05:23;11.52;;;8.20;;
73869;SDS011;64924;42.140;24.762;2023-06-10T05:07:48;14.73;;;8.20;;
73869;SDS011;64924;42.140;24.762;2023-06-10T05:10:13;12.38;;;8.18;;
73869;SDS011;64924;42.140;24.762;2023-06-10T05:12:39;14.00;;;7.82;;
73869;SDS011;64924;42.140;24.762;2023-06-10T05:15:06;12.90;;;7.85;;
73869;SDS011;64924;42.140;24.762;2023-06-10T05:17:32;13.15;;;7.82;;
73869;SDS011;64924;42.140;24.762;2023-06-10T05:19:58;12.73;;;7.30;;
73869;SDS011;64924;42.140;24.762;2023-06-10T05:22:23;17.83;;;7.03;;
73869;SDS011;64924;42.140;24.762;2023-06-10T05:24:52;8.95;;;5.70;;
73869;SDS011;64924;42.140;24.762;2023-06-10T05:27:18;11.43;;;8.25;;
73869;SDS011;64924;42.140;24.762;2023-06-10T05:29:44;10.00;;;7.25;;
73869;SDS011;64924;42.140;24.762;2023-06-10T05:32:10;12.93;;;7.07;;
73869;SDS011;64924;42.140;24.762;2023-06-10T05:34:36;9.15;;;6.78;;
73869;SDS011;64924;42.140;24.762;2023-06-10T05:37:01;8.63;;;6.70;;
73869;SDS011;64924;42.140;24.762;2023-06-10T05:39:27;11.52;;;6.47;;
73869;SDS011;64924;42.140;24.762;2023-06-10T05:41:53;8.75;;;6.10;;
73869;SDS011;64924;42.140;24.762;2023-06-10T05:44:18;11.65;;;6.47;;
73869;SDS011;64924;42.140;24.762;2023-06-10T05:46:44;9.63;;;6.20;;
73869;SDS011;64924;42.140;24.762;2023-06-10T05:49:09;11.18;;;7.20;;
73869;SDS011;64924;42.140;24.762;2023-06-10T05:51:34;15.65;;;6.88;;
73869;SDS011;64924;42.140;24.762;2023-06-10T05:54:02;10.90;;;7.03;;
73869;SDS011;64924;42.140;24.762;2023-06-10T05:56:27;12.75;;;7.10;;
73869;SDS011;64924;42.140;24.762;2023-06-10T05:58:53;14.27;;;6.60;;
73869;SDS011;64924;42.140;24.762;2023-06-10T06:01:18;14.35;;;7.55;;
73869;SDS011;64924;42.140;24.762;2023-06-10T06:03:44;16.02;;;7.55;;
73869;SDS011;64924;42.140;24.762;2023-06-10T06:06:09;12.80;;;7.57;;
73869;SDS011;64924;42.140;24.762;2023-06-10T06:08:35;11.20;;;7.25;;
73869;SDS011;64924;42.140;24.762;2023-06-10T06:11:00;12.57;;;6.22;;
73869;SDS011;64924;42.140;24.762;2023-06-10T06:13:26;11.48;;;6.55;;
73869;SDS011;64924;42.140;24.762;2023-06-10T06:15:51;8.18;;;5.70;;
73869;SDS011;64924;42.140;24.762;2023-06-10T06:18:16;11.63;;;5.80;;
73869;SDS011;64924;42.140;24.762;2023-06-10T06:20:43;9.10;;;6.35;;
73869;SDS011;64924;42.140;24.762;2023-06-10T06:23:09;11.82;;;6.50;;
73869;SDS011;64924;42.140;24.762;2023-06-10T06:25:36;17.02;;;6.95;;
73869;SDS011;64924;42.140;24.762;2023-06-10T06:28:03;13.35;;;6.72;;
73869;SDS011;64924;42.140;24.762;2023-06-10T06:30:31;11.93;;;6.97;;
73869;SDS011;64924;42.140;24.762;2023-06-10T06:32:57;9.48;;;6.55;;
73869;SDS011;64924;42.140;24.762;2023-06-10T06:35:22;8.68;;;5.95;;
73869;SDS011;64924;42.140;24.762;2023-06-10T06:37:47;9.48;;;5.90;;
73869;SDS011;64924;42.140;24.762;2023-06-10T06:40:13;13.82;;;6.60;;
73869;SDS011;64924;42.140;24.762;2023-06-10T06:42:39;8.52;;;5.78;;
73869;SDS011;64924;42.140;24.762;2023-06-10T06:45:04;9.23;;;5.78;;
73869;SDS011;64924;42.140;24.762;2023-06-10T06:47:30;8.98;;;6.07;;
73869;SDS011;64924;42.140;24.762;2023-06-10T06:49:56;10.48;;;5.75;;
73869;SDS011;64924;42.140;24.762;2023-06-10T06:52:21;13.05;;;6.28;;
73869;SDS011;64924;42.140;24.762;2023-06-10T06:54:47;8.45;;;5.30;;
73869;SDS011;64924;42.140;24.762;2023-06-10T06:57:13;9.60;;;6.32;;
73869;SDS011;64924;42.140;24.762;2023-06-10T06:59:38;10.80;;;5.13;;
73869;SDS011;64924;42.140;24.762;2023-06-10T07:02:04;10.77;;;5.40;;
73869;SDS011;64924;42.140;24.762;2023-06-10T07:04:30;9.20;;;5.35;;
73869;SDS011;64924;42.140;24.762;2023-06-10T07:06:56;8.57;;;5.00;;
73869;SDS011;64924;42.140;24.762;2023-06-10T07:09:21;6.47;;;4.95;;
73869;SDS011;64924;42.140;24.762;2023-06-10T07:11:46;10.27;;;6.07;;
73869;SDS011;64924;42.140;24.762;2023-06-10T07:14:12;7.20;;;5.88;;
73869;SDS011;64924;42.140;24.762;2023-06-10T07:16:37;8.82;;;6.22;;
73869;SDS011;64924;42.140;24.762;2023-06-10T07:19:03;9.57;;;6.32;;
73869;SDS011;64924;42.140;24.762;2023-06-10T07:21:29;9.50;;;5.72;;
73869;SDS011;64924;42.140;24.762;2023-06-10T07:23:55;10.13;;;5.68;;
73869;SDS011;64924;42.140;24.762;2023-06-10T07:26:24;9.25;;;5.82;;
73869;SDS011;64924;42.140;24.762;2023-06-10T07:31:16;12.00;;;5.93;;
73869;SDS011;64924;42.140;24.762;2023-06-10T07:33:41;11.18;;;6.10;;
73869;SDS011;64924;42.140;24.762;2023-06-10T07:36:08;10.88;;;6.03;;
73869;SDS011;64924;42.140;24.762;2023-06-10T07:38:34;13.02;;;7.20;;
73869;SDS011;64924;42.140;24.762;2023-06-10T07:41:00;11.65;;;6.25;;
73869;SDS011;64924;42.140;24.762;2023-06-10T07:43:25;9.85;;;5.20;;
73869;SDS011;64924;42.140;24.762;2023-06-10T07:45:51;8.82;;;5.32;;
73869;SDS011;64924;42.140;24.762;2023-06-10T07:48:16;7.85;;;5.40;;
73869;SDS011;64924;42.140;24.762;2023-06-10T07:50:42;10.43;;;6.07;;
73869;SDS011;64924;42.140;24.762;2023-06-10T07:53:07;8.45;;;5.45;;
73869;SDS011;64924;42.140;24.762;2023-06-10T07:55:33;6.82;;;5.32;;
73869;SDS011;64924;42.140;24.762;2023-06-10T07:57:58;12.48;;;5.20;;
73869;SDS011;64924;42.140;24.762;2023-06-10T08:00:24;6.38;;;4.53;;
73869;SDS011;64924;42.140;24.762;2023-06-10T08:02:49;5.25;;;4.70;;
73869;SDS011;64924;42.140;24.762;2023-06-10T08:05:15;7.60;;;5.68;;
73869;SDS011;64924;42.140;24.762;2023-06-10T08:07:41;7.00;;;5.38;;
73869;SDS011;64924;42.140;24.762;2023-06-10T08:10:07;9.07;;;5.00;;
73869;SDS011;64924;42.140;24.762;2023-06-10T08:12:33;6.05;;;5.38;;
73869;SDS011;64924;42.140;24.762;2023-06-10T08:15:00;11.43;;;5.60;;
73869;SDS011;64924;42.140;24.762;2023-06-10T08:17:26;11.05;;;5.10;;
73869;SDS011;64924;42.140;24.762;2023-06-10T08:19:51;11.50;;;6.10;;
73869;SDS011;64924;42.140;24.762;2023-06-10T08:22:17;11.63;;;6.95;;
73869;SDS011;64924;42.140;24.762;2023-06-10T08:24:42;6.25;;;5.30;;
73869;SDS011;64924;42.140;24.762;2023-06-10T08:27:08;8.32;;;6.47;;
73869;SDS011;64924;42.140;24.762;2023-06-10T08:29:33;7.80;;;6.38;;
73869;SDS011;64924;42.140;24.762;2023-06-10T08:31:59;9.00;;;4.93;;
73869;SDS011;64924;42.140;24.762;2023-06-10T08:34:25;6.40;;;4.93;;
73869;SDS011;64924;42.140;24.762;2023-06-10T08:36:50;6.68;;;5.63;;
73869;SDS011;64924;42.140;24.762;2023-06-10T08:39:20;11.32;;;8.10;;
73869;SDS011;64924;42.140;24.762;2023-06-10T08:42:09;8.27;;;5.78;;
73869;SDS011;64924;42.140;24.762;2023-06-10T08:44:47;9.18;;;5.18;;
73869;SDS011;64924;42.140;24.762;2023-06-10T08:47:18;6.35;;;4.30;;
73869;SDS011;64924;42.140;24.762;2023-06-10T08:49:47;5.97;;;4.55;;
73869;SDS011;64924;42.140;24.762;2023-06-10T08:52:16;8.38;;;5.20;;
73869;SDS011;64924;42.140;24.762;2023-06-10T08:54:48;6.88;;;4.88;;
73869;SDS011;64924;42.140;24.762;2023-06-10T08:57:17;8.38;;;4.78;;
73869;SDS011;64924;42.140;24.762;2023-06-10T08:59:45;9.05;;;4.88;;
73869;SDS011;64924;42.140;24.762;2023-06-10T09:02:11;9.80;;;4.97;;
73869;SDS011;64924;42.140;24.762;2023-06-10T09:04:40;7.85;;;4.85;;
73869;SDS011;64924;42.140;24.762;2023-06-10T09:09:35;5.38;;;4.45;;
73869;SDS011;64924;42.140;24.762;2023-06-10T09:12:02;9.32;;;5.28;;
73869;SDS011;64924;42.140;24.762;2023-06-10T09:14:28;7.05;;;4.38;;
73869;SDS011;64924;42.140;24.762;2023-06-10T09:16:54;6.88;;;4.68;;
73869;SDS011;64924;42.140;24.762;2023-06-10T09:19:23;8.93;;;4.57;;
73869;SDS011;64924;42.140;24.762;2023-06-10T09:21:50;6.22;;;3.55;;
73869;SDS011;64924;42.140;24.762;2023-06-10T09:24:16;8.68;;;4.10;;
73869;SDS011;64924;42.140;24.762;2023-06-10T09:26:42;5.22;;;3.53;;
73869;SDS011;64924;42.140;24.762;2023-06-10T09:29:08;5.68;;;3.50;;
73869;SDS011;64924;42.140;24.762;2023-06-10T09:31:37;6.43;;;3.40;;
73869;SDS011;64924;42.140;24.762;2023-06-10T09:36:39;6.93;;;3.97;;
73869;SDS011;64924;42.140;24.762;2023-06-10T09:39:05;6.18;;;4.47;;
73869;SDS011;64924;42.140;24.762;2023-06-10T09:41:40;6.65;;;3.83;;
73869;SDS011;64924;42.140;24.762;2023-06-10T09:46:38;6.57;;;4.55;;
73869;SDS011;64924;42.140;24.762;2023-06-10T09:49:03;5.85;;;4.05;;
73869;SDS011;64924;42.140;24.762;2023-06-10T09:51:29;6.30;;;3.75;;
73869;SDS011;64924;42.140;24.762;2023-06-10T09:53:54;5.05;;;4.07;;
73869;SDS011;64924;42.140;24.762;2023-06-10T09:56:20;9.68;;;5.03;;
73869;SDS011;64924;42.140;24.762;2023-06-10T09:58:49;9.30;;;4.70;;
73869;SDS011;64924;42.140;24.762;2023-06-10T10:01:18;12.40;;;4.45;;
73869;SDS011;64924;42.140;24.762;2023-06-10T10:03:47;14.50;;;5.82;;
73869;SDS011;64924;42.140;24.762;2023-06-10T10:06:16;7.10;;;4.40;;
73869;SDS011;64924;42.140;24.762;2023-06-10T10:08:43;10.23;;;4.60;;
73869;SDS011;64924;42.140;24.762;2023-06-10T10:11:10;8.73;;;4.50;;
73869;SDS011;64924;42.140;24.762;2023-06-10T10:13:36;8.50;;;5.05;;
73869;SDS011;64924;42.140;24.762;2023-06-10T10:16:09;6.38;;;4.63;;
73869;SDS011;64924;42.140;24.762;2023-06-10T10:18:41;6.72;;;4.43;;
73869;SDS011;64924;42.140;24.762;2023-06-10T10:21:14;8.55;;;5.22;;
73869;SDS011;64924;42.140;24.762;2023-06-10T10:26:15;8.88;;;4.68;;
73869;SDS011;64924;42.140;24.762;2023-06-10T10:28:46;5.28;;;4.68;;
73869;SDS011;64924;42.140;24.762;2023-06-10T10:31:21;9.98;;;4.93;;
73869;SDS011;64924;42.140;24.762;2023-06-10T10:33:59;10.75;;;4.50;;
73869;SDS011;64924;42.140;24.762;2023-06-10T10:36:27;5.68;;;4.45;;
73869;SDS011;64924;42.140;24.762;2023-06-10T10:38:53;8.70;;;5.22;;
73869;SDS011;64924;42.140;24.762;2023-06-10T10:41:19;11.05;;;5.35;;
73869;SDS011;64924;42.140;24.762;2023-06-10T10:43:46;6.60;;;4.78;;
73869;SDS011;64924;42.140;24.762;2023-06-10T10:46:14;8.02;;;5.10;;
73869;SDS011;64924;42.140;24.762;2023-06-10T10:48:42;11.27;;;5.20;;
73869;SDS011;64924;42.140;24.762;2023-06-10T10:51:09;7.18;;;4.03;;
73869;SDS011;64924;42.140;24.762;2023-06-10T10:53:39;11.05;;;4.47;;
73869;SDS011;64924;42.140;24.762;2023-06-10T10:58:34;5.43;;;4.35;;
73869;SDS011;64924;42.140;24.762;2023-06-10T11:01:01;6.07;;;4.38;;
73869;SDS011;64924;42.140;24.762;2023-06-10T11:03:36;8.88;;;4.50;;
73869;SDS011;64924;42.140;24.762;2023-06-10T11:06:18;7.65;;;4.47;;
73869;SDS011;64924;42.140;24.762;2023-06-10T11:11:18;9.50;;;4.82;;
73869;SDS011;64924;42.140;24.762;2023-06-10T11:13:57;10.77;;;5.60;;
73869;SDS011;64924;42.140;24.762;2023-06-10T11:16:39;4.88;;;4.35;;
73869;SDS011;64924;42.140;24.762;2023-06-10T11:19:06;7.88;;;4.47;;
73869;SDS011;64924;42.140;24.762;2023-06-10T11:21:31;7.45;;;4.22;;
73869;SDS011;64924;42.140;24.762;2023-06-10T11:24:09;7.57;;;4.35;;
73869;SDS011;64924;42.140;24.762;2023-06-10T11:26:43;6.57;;;4.20;;
73869;SDS011;64924;42.140;24.762;2023-06-10T11:29:09;8.70;;;4.30;;
73869;SDS011;64924;42.140;24.762;2023-06-10T11:31:39;5.70;;;4.05;;
73869;SDS011;64924;42.140;24.762;2023-06-10T11:34:09;5.30;;;3.85;;
73869;SDS011;64924;42.140;24.762;2023-06-10T11:36:39;5.57;;;3.88;;
73869;SDS011;64924;42.140;24.762;2023-06-10T11:39:07;6.45;;;3.67;;
73869;SDS011;64924;42.140;24.762;2023-06-10T11:41:34;7.75;;;3.95;;
73869;SDS011;64924;42.140;24.762;2023-06-10T11:44:02;7.10;;;4.47;;
73869;SDS011;64924;42.140;24.762;2023-06-10T11:46:38;5.53;;;4.22;;
73869;SDS011;64924;42.140;24.762;2023-06-10T11:49:04;8.55;;;4.25;;
73869;SDS011;64924;42.140;24.762;2023-06-10T11:51:35;10.23;;;4.10;;
73869;SDS011;64924;42.140;24.762;2023-06-10T11:54:02;8.48;;;4.75;;
73869;SDS011;64924;42.140;24.762;2023-06-10T11:56:29;6.25;;;4.82;;
73869;SDS011;64924;42.140;24.762;2023-06-10T11:58:57;5.82;;;4.10;;
73869;SDS011;64924;42.140;24.762;2023-06-10T12:01:29;7.28;;;4.25;;
73869;SDS011;64924;42.140;24.762;2023-06-10T12:04:02;8.75;;;4.55;;
73869;SDS011;64924;42.140;24.762;2023-06-10T12:06:39;10.20;;;4.55;;
73869;SDS011;64924;42.140;24.762;2023-06-10T12:09:05;11.82;;;5.10;;
73869;SDS011;64924;42.140;24.762;2023-06-10T12:11:31;5.07;;;4.00;;
73869;SDS011;64924;42.140;24.762;2023-06-10T12:13:58;7.13;;;4.20;;
73869;SDS011;64924;42.140;24.762;2023-06-10T12:16:23;6.10;;;4.18;;
73869;SDS011;64924;42.140;24.762;2023-06-10T12:18:49;8.32;;;4.60;;
73869;SDS011;64924;42.140;24.762;2023-06-10T12:21:18;6.20;;;4.13;;
73869;SDS011;64924;42.140;24.762;2023-06-10T12:24:07;5.78;;;4.90;;
73869;SDS011;64924;42.140;24.762;2023-06-10T12:26:41;6.47;;;4.43;;
73869;SDS011;64924;42.140;24.762;2023-06-10T12:29:23;7.55;;;5.10;;
73869;SDS011;64924;42.140;24.762;2023-06-10T12:31:59;11.52;;;5.18;;
73869;SDS011;64924;42.140;24.762;2023-06-10T12:34:30;6.35;;;5.10;;
73869;SDS011;64924;42.140;24.762;2023-06-10T12:37:01;7.65;;;4.72;;
73869;SDS011;64924;42.140;24.762;2023-06-10T12:39:29;8.02;;;5.07;;
73869;SDS011;64924;42.140;24.762;2023-06-10T12:41:55;10.05;;;5.20;;
73869;SDS011;64924;42.140;24.762;2023-06-10T12:44:33;9.80;;;4.75;;
73869;SDS011;64924;42.140;24.762;2023-06-10T12:47:00;8.38;;;4.82;;
73869;SDS011;64924;42.140;24.762;2023-06-10T12:49:31;10.63;;;6.00;;
73869;SDS011;64924;42.140;24.762;2023-06-10T12:51:57;8.30;;;4.55;;
73869;SDS011;64924;42.140;24.762;2023-06-10T12:54:22;10.23;;;5.35;;
73869;SDS011;64924;42.140;24.762;2023-06-10T12:56:48;6.93;;;5.40;;
73869;SDS011;64924;42.140;24.762;2023-06-10T12:59:13;7.90;;;3.88;;
73869;SDS011;64924;42.140;24.762;2023-06-10T13:01:39;8.80;;;4.28;;
73869;SDS011;64924;42.140;24.762;2023-06-10T13:04:05;5.78;;;4.05;;
73869;SDS011;64924;42.140;24.762;2023-06-10T13:06:33;7.13;;;4.90;;
73869;SDS011;64924;42.140;24.762;2023-06-10T13:09:02;5.97;;;4.57;;
73869;SDS011;64924;42.140;24.762;2023-06-10T13:11:28;6.45;;;4.68;;
73869;SDS011;64924;42.140;24.762;2023-06-10T13:13:53;7.60;;;4.30;;
73869;SDS011;64924;42.140;24.762;2023-06-10T13:16:19;8.85;;;5.00;;
73869;SDS011;64924;42.140;24.762;2023-06-10T13:18:44;6.80;;;4.63;;
73869;SDS011;64924;42.140;24.762;2023-06-10T13:21:11;7.10;;;4.47;;
73869;SDS011;64924;42.140;24.762;2023-06-10T13:23:36;8.10;;;4.85;;
73869;SDS011;64924;42.140;24.762;2023-06-10T13:26:02;8.00;;;4.30;;
73869;SDS011;64924;42.140;24.762;2023-06-10T13:28:28;9.43;;;4.32;;
73869;SDS011;64924;42.140;24.762;2023-06-10T13:30:53;6.18;;;4.35;;
73869;SDS011;64924;42.140;24.762;2023-06-10T13:33:19;7.38;;;4.20;;
73869;SDS011;64924;42.140;24.762;2023-06-10T13:35:44;6.35;;;4.32;;
73869;SDS011;64924;42.140;24.762;2023-06-10T13:38:10;8.57;;;4.38;;
73869;SDS011;64924;42.140;24.762;2023-06-10T13:40:35;6.88;;;4.20;;
73869;SDS011;64924;42.140;24.762;2023-06-10T13:43:01;7.43;;;4.30;;
73869;SDS011;64924;42.140;24.762;2023-06-10T13:45:27;9.35;;;4.47;;
73869;SDS011;64924;42.140;24.762;2023-06-10T13:47:53;11.20;;;4.38;;
73869;SDS011;64924;42.140;24.762;2023-06-10T13:50:18;6.38;;;4.05;;
73869;SDS011;64924;42.140;24.762;2023-06-10T13:52:44;5.35;;;3.85;;
73869;SDS011;64924;42.140;24.762;2023-06-10T13:55:09;7.13;;;4.10;;
73869;SDS011;64924;42.140;24.762;2023-06-10T13:57:35;7.45;;;4.43;;
73869;SDS011;64924;42.140;24.762;2023-06-10T14:00:00;5.35;;;3.90;;
73869;SDS011;64924;42.140;24.762;2023-06-10T14:02:26;6.53;;;3.95;;
73869;SDS011;64924;42.140;24.762;2023-06-10T14:04:52;10.20;;;4.97;;
73869;SDS011;64924;42.140;24.762;2023-06-10T14:07:18;9.40;;;4.65;;
73869;SDS011;64924;42.140;24.762;2023-06-10T14:09:43;8.38;;;4.35;;
73869;SDS011;64924;42.140;24.762;2023-06-10T14:12:09;9.25;;;4.15;;
73869;SDS011;64924;42.140;24.762;2023-06-10T14:14:35;7.70;;;4.60;;
73869;SDS011;64924;42.140;24.762;2023-06-10T14:17:01;5.93;;;4.38;;
73869;SDS011;64924;42.140;24.762;2023-06-10T14:19:28;5.20;;;3.72;;
73869;SDS011;64924;42.140;24.762;2023-06-10T14:21:53;8.55;;;4.25;;
73869;SDS011;64924;42.140;24.762;2023-06-10T14:24:20;9.45;;;4.20;;
73869;SDS011;64924;42.140;24.762;2023-06-10T14:26:45;6.20;;;4.25;;
73869;SDS011;64924;42.140;24.762;2023-06-10T14:29:11;6.10;;;4.07;;
73869;SDS011;64924;42.140;24.762;2023-06-10T14:31:39;7.38;;;4.13;;
73869;SDS011;64924;42.140;24.762;2023-06-10T14:34:05;5.53;;;3.72;;
73869;SDS011;64924;42.140;24.762;2023-06-10T14:36:32;5.60;;;3.75;;
73869;SDS011;64924;42.140;24.762;2023-06-10T14:38:58;7.68;;;4.30;;
73869;SDS011;64924;42.140;24.762;2023-06-10T14:41:23;6.35;;;3.70;;
73869;SDS011;64924;42.140;24.762;2023-06-10T14:43:49;9.80;;;4.18;;
73869;SDS011;64924;42.140;24.762;2023-06-10T14:46:15;7.60;;;4.05;;
73869;SDS011;64924;42.140;24.762;2023-06-10T14:48:41;10.00;;;4.68;;
73869;SDS011;64924;42.140;24.762;2023-06-10T14:51:06;7.75;;;4.13;;
73869;SDS011;64924;42.140;24.762;2023-06-10T14:53:31;4.85;;;4.22;;